CSF2 weather

Innisfail Hospital Heliport
Innisfail, Alberta, Canada

Public forecast

Using degrees Celsius for public forecast. Weather courtesy of forecast.io.

Closest aviation weather report (METAR) to Innisfail Hospital Heliport

Closest report is Red Deer Regional Airport, 10.0 nm (18.6 km) NNE. Retrieved 2020/02/19 13:00 UTC (6 minutes ago):

CYQF 191300Z 21006KT 15SM FEW080 M24/M26 A3024 RMK AC2 SLP333

Closest aviation forecast (TAF) to Innisfail Hospital Heliport

Closest forecast is Red Deer Regional Airport, 10.0 nm (18.6 km) NNE. Retrieved 2020/02/19 12:45 UTC (21 minutes ago):

TAF CYQF 191141Z 1912/1924 19005KT P6SM FEW080 RMK NXT FCST BY 191800Z